sensor_id;sensor_type;location;lat;lon;timestamp;P1;durP1;ratioP1;P2;durP2;ratioP2
76346;SDS011;65171;48.378;10.010;2023-02-18T00:02:10;4.00;;;2.63;;
76346;SDS011;65171;48.378;10.010;2023-02-18T00:04:35;3.57;;;2.70;;
76346;SDS011;65171;48.378;10.010;2023-02-18T00:07:00;2.60;;;2.40;;
76346;SDS011;65171;48.378;10.010;2023-02-18T00:09:25;2.80;;;2.33;;
76346;SDS011;65171;48.378;10.010;2023-02-18T00:11:51;2.83;;;2.27;;
76346;SDS011;65171;48.378;10.010;2023-02-18T00:14:16;4.50;;;2.10;;
76346;SDS011;65171;48.378;10.010;2023-02-18T00:16:42;3.30;;;2.43;;
76346;SDS011;65171;48.378;10.010;2023-02-18T00:19:10;2.30;;;2.10;;
76346;SDS011;65171;48.378;10.010;2023-02-18T00:21:38;2.67;;;2.33;;
76346;SDS011;65171;48.378;10.010;2023-02-18T00:24:04;2.77;;;2.17;;
76346;SDS011;65171;48.378;10.010;2023-02-18T00:26:30;2.23;;;2.03;;
76346;SDS011;65171;48.378;10.010;2023-02-18T00:28:55;3.13;;;2.13;;
76346;SDS011;65171;48.378;10.010;2023-02-18T00:31:26;5.57;;;2.23;;
76346;SDS011;65171;48.378;10.010;2023-02-18T00:33:53;3.07;;;1.93;;
76346;SDS011;65171;48.378;10.010;2023-02-18T00:36:19;2.10;;;1.90;;
76346;SDS011;65171;48.378;10.010;2023-02-18T00:38:50;2.90;;;1.90;;
76346;SDS011;65171;48.378;10.010;2023-02-18T00:41:17;3.20;;;1.83;;
76346;SDS011;65171;48.378;10.010;2023-02-18T00:43:43;3.07;;;2.07;;
76346;SDS011;65171;48.378;10.010;2023-02-18T00:46:08;2.50;;;2.03;;
76346;SDS011;65171;48.378;10.010;2023-02-18T00:48:33;2.43;;;2.23;;
76346;SDS011;65171;48.378;10.010;2023-02-18T00:51:00;3.50;;;2.10;;
76346;SDS011;65171;48.378;10.010;2023-02-18T00:53:26;4.00;;;2.20;;
76346;SDS011;65171;48.378;10.010;2023-02-18T00:55:52;2.60;;;2.40;;
76346;SDS011;65171;48.378;10.010;2023-02-18T00:58:17;3.30;;;2.20;;
76346;SDS011;65171;48.378;10.010;2023-02-18T01:00:42;2.37;;;2.17;;
76346;SDS011;65171;48.378;10.010;2023-02-18T01:03:08;3.43;;;2.13;;
76346;SDS011;65171;48.378;10.010;2023-02-18T01:05:34;2.40;;;2.10;;
76346;SDS011;65171;48.378;10.010;2023-02-18T01:08:00;2.53;;;1.83;;
76346;SDS011;65171;48.378;10.010;2023-02-18T01:10:26;2.97;;;2.30;;
76346;SDS011;65171;48.378;10.010;2023-02-18T01:12:51;2.70;;;2.10;;
76346;SDS011;65171;48.378;10.010;2023-02-18T01:15:17;2.77;;;2.47;;
76346;SDS011;65171;48.378;10.010;2023-02-18T01:17:42;2.37;;;1.93;;
76346;SDS011;65171;48.378;10.010;2023-02-18T01:20:08;2.67;;;2.10;;
76346;SDS011;65171;48.378;10.010;2023-02-18T01:22:35;2.67;;;2.00;;
76346;SDS011;65171;48.378;10.010;2023-02-18T01:25:00;2.43;;;2.17;;
76346;SDS011;65171;48.378;10.010;2023-02-18T01:27:26;4.53;;;2.60;;
76346;SDS011;65171;48.378;10.010;2023-02-18T01:29:51;3.43;;;2.57;;
76346;SDS011;65171;48.378;10.010;2023-02-18T01:32:16;2.70;;;2.20;;
76346;SDS011;65171;48.378;10.010;2023-02-18T01:34:41;2.90;;;2.57;;
76346;SDS011;65171;48.378;10.010;2023-02-18T01:37:06;3.07;;;2.57;;
76346;SDS011;65171;48.378;10.010;2023-02-18T01:39:32;3.00;;;2.50;;
76346;SDS011;65171;48.378;10.010;2023-02-18T01:41:57;3.67;;;2.60;;
76346;SDS011;65171;48.378;10.010;2023-02-18T01:44:23;5.03;;;2.60;;
76346;SDS011;65171;48.378;10.010;2023-02-18T01:46:51;2.93;;;2.50;;
76346;SDS011;65171;48.378;10.010;2023-02-18T01:49:17;3.00;;;2.60;;
76346;SDS011;65171;48.378;10.010;2023-02-18T01:51:49;3.80;;;2.90;;
76346;SDS011;65171;48.378;10.010;2023-02-18T01:54:31;3.73;;;2.80;;
76346;SDS011;65171;48.378;10.010;2023-02-18T01:57:06;3.00;;;2.70;;
76346;SDS011;65171;48.378;10.010;2023-02-18T01:59:55;3.53;;;2.50;;
76346;SDS011;65171;48.378;10.010;2023-02-18T02:02:22;3.30;;;3.00;;
76346;SDS011;65171;48.378;10.010;2023-02-18T02:04:53;3.27;;;2.83;;
76346;SDS011;65171;48.378;10.010;2023-02-18T02:07:19;5.37;;;3.00;;
76346;SDS011;65171;48.378;10.010;2023-02-18T02:09:46;4.27;;;2.90;;
76346;SDS011;65171;48.378;10.010;2023-02-18T02:23:49;3.47;;;2.87;;
76346;SDS011;65171;48.378;10.010;2023-02-18T02:40:20;4.00;;;2.50;;
76346;SDS011;65171;48.378;10.010;2023-02-18T02:43:06;4.97;;;2.40;;
76346;SDS011;65171;48.378;10.010;2023-02-18T02:48:27;2.97;;;2.30;;
76346;SDS011;65171;48.378;10.010;2023-02-18T02:51:03;2.50;;;2.30;;
76346;SDS011;65171;48.378;10.010;2023-02-18T02:53:33;2.60;;;2.40;;
76346;SDS011;65171;48.378;10.010;2023-02-18T02:56:00;2.60;;;2.30;;
76346;SDS011;65171;48.378;10.010;2023-02-18T02:58:25;3.13;;;2.43;;
76346;SDS011;65171;48.378;10.010;2023-02-18T03:03:31;2.90;;;2.60;;
76346;SDS011;65171;48.378;10.010;2023-02-18T03:11:46;4.43;;;2.60;;
76346;SDS011;65171;48.378;10.010;2023-02-18T03:14:58;3.57;;;2.87;;
76346;SDS011;65171;48.378;10.010;2023-02-18T03:17:45;3.57;;;3.00;;
76346;SDS011;65171;48.378;10.010;2023-02-18T03:20:23;3.37;;;2.93;;
76346;SDS011;65171;48.378;10.010;2023-02-18T03:22:52;3.37;;;2.87;;
76346;SDS011;65171;48.378;10.010;2023-02-18T03:25:19;3.20;;;2.90;;
76346;SDS011;65171;48.378;10.010;2023-02-18T03:27:49;3.50;;;2.93;;
76346;SDS011;65171;48.378;10.010;2023-02-18T03:32:46;3.33;;;2.90;;
76346;SDS011;65171;48.378;10.010;2023-02-18T03:35:16;3.37;;;3.07;;
76346;SDS011;65171;48.378;10.010;2023-02-18T03:37:52;3.60;;;2.97;;
76346;SDS011;65171;48.378;10.010;2023-02-18T03:40:21;3.50;;;3.20;;
76346;SDS011;65171;48.378;10.010;2023-02-18T03:42:46;3.90;;;3.30;;
76346;SDS011;65171;48.378;10.010;2023-02-18T03:45:11;3.20;;;2.90;;
76346;SDS011;65171;48.378;10.010;2023-02-18T03:47:37;3.73;;;2.90;;
76346;SDS011;65171;48.378;10.010;2023-02-18T03:50:02;3.70;;;3.30;;
76346;SDS011;65171;48.378;10.010;2023-02-18T03:52:27;4.93;;;3.33;;
76346;SDS011;65171;48.378;10.010;2023-02-18T03:54:52;3.70;;;3.30;;
76346;SDS011;65171;48.378;10.010;2023-02-18T03:57:18;3.63;;;3.30;;
76346;SDS011;65171;48.378;10.010;2023-02-18T03:59:43;3.57;;;3.27;;
76346;SDS011;65171;48.378;10.010;2023-02-18T04:02:08;3.63;;;3.07;;
76346;SDS011;65171;48.378;10.010;2023-02-18T04:04:33;4.07;;;3.23;;
76346;SDS011;65171;48.378;10.010;2023-02-18T04:06:58;3.50;;;3.20;;
76346;SDS011;65171;48.378;10.010;2023-02-18T04:09:24;4.50;;;3.00;;
76346;SDS011;65171;48.378;10.010;2023-02-18T04:11:49;3.10;;;2.90;;
76346;SDS011;65171;48.378;10.010;2023-02-18T04:14:14;4.20;;;2.90;;
76346;SDS011;65171;48.378;10.010;2023-02-18T04:16:40;3.47;;;2.80;;
76346;SDS011;65171;48.378;10.010;2023-02-18T04:19:05;3.30;;;3.00;;
76346;SDS011;65171;48.378;10.010;2023-02-18T04:21:31;3.37;;;2.70;;
76346;SDS011;65171;48.378;10.010;2023-02-18T04:23:57;3.23;;;2.70;;
76346;SDS011;65171;48.378;10.010;2023-02-18T04:26:22;3.20;;;2.90;;
76346;SDS011;65171;48.378;10.010;2023-02-18T04:28:47;3.20;;;2.90;;
76346;SDS011;65171;48.378;10.010;2023-02-18T04:31:12;3.00;;;2.70;;
76346;SDS011;65171;48.378;10.010;2023-02-18T04:33:38;2.83;;;2.53;;
76346;SDS011;65171;48.378;10.010;2023-02-18T04:36:03;2.80;;;2.53;;
76346;SDS011;65171;48.378;10.010;2023-02-18T04:38:28;3.87;;;2.60;;
76346;SDS011;65171;48.378;10.010;2023-02-18T04:40:53;4.37;;;2.73;;
76346;SDS011;65171;48.378;10.010;2023-02-18T04:43:19;2.93;;;2.60;;
76346;SDS011;65171;48.378;10.010;2023-02-18T04:45:44;2.60;;;2.40;;
76346;SDS011;65171;48.378;10.010;2023-02-18T04:48:09;3.57;;;2.77;;
76346;SDS011;65171;48.378;10.010;2023-02-18T04:50:34;3.10;;;2.80;;
76346;SDS011;65171;48.378;10.010;2023-02-18T04:53:00;4.77;;;2.67;;
76346;SDS011;65171;48.378;10.010;2023-02-18T04:55:25;2.47;;;2.27;;
76346;SDS011;65171;48.378;10.010;2023-02-18T04:57:50;2.80;;;2.50;;
76346;SDS011;65171;48.378;10.010;2023-02-18T05:00:16;3.07;;;2.50;;
76346;SDS011;65171;48.378;10.010;2023-02-18T05:02:43;2.40;;;2.20;;
76346;SDS011;65171;48.378;10.010;2023-02-18T05:05:08;3.73;;;2.63;;
76346;SDS011;65171;48.378;10.010;2023-02-18T05:07:34;2.57;;;2.37;;
76346;SDS011;65171;48.378;10.010;2023-02-18T05:09:59;2.97;;;2.50;;
76346;SDS011;65171;48.378;10.010;2023-02-18T05:12:24;2.70;;;2.50;;
76346;SDS011;65171;48.378;10.010;2023-02-18T05:14:49;2.40;;;2.20;;
76346;SDS011;65171;48.378;10.010;2023-02-18T05:17:14;2.83;;;2.63;;
76346;SDS011;65171;48.378;10.010;2023-02-18T05:19:40;2.60;;;2.40;;
76346;SDS011;65171;48.378;10.010;2023-02-18T05:22:05;2.83;;;2.63;;
76346;SDS011;65171;48.378;10.010;2023-02-18T05:24:30;3.00;;;2.70;;
76346;SDS011;65171;48.378;10.010;2023-02-18T05:26:55;2.70;;;2.50;;
76346;SDS011;65171;48.378;10.010;2023-02-18T05:29:20;2.73;;;2.53;;
76346;SDS011;65171;48.378;10.010;2023-02-18T05:31:46;3.57;;;2.57;;
76346;SDS011;65171;48.378;10.010;2023-02-18T05:34:11;2.93;;;2.53;;
76346;SDS011;65171;48.378;10.010;2023-02-18T05:36:36;2.80;;;2.50;;
76346;SDS011;65171;48.378;10.010;2023-02-18T05:39:02;4.27;;;2.70;;
76346;SDS011;65171;48.378;10.010;2023-02-18T05:41:27;3.10;;;2.70;;
76346;SDS011;65171;48.378;10.010;2023-02-18T05:43:52;2.80;;;2.50;;
76346;SDS011;65171;48.378;10.010;2023-02-18T05:46:17;2.83;;;2.60;;
76346;SDS011;65171;48.378;10.010;2023-02-18T05:48:43;2.80;;;2.43;;
76346;SDS011;65171;48.378;10.010;2023-02-18T05:51:08;3.53;;;2.50;;
76346;SDS011;65171;48.378;10.010;2023-02-18T05:53:33;2.60;;;2.40;;
76346;SDS011;65171;48.378;10.010;2023-02-18T05:55:58;2.40;;;2.20;;
76346;SDS011;65171;48.378;10.010;2023-02-18T05:58:23;2.83;;;2.33;;
76346;SDS011;65171;48.378;10.010;2023-02-18T06:00:49;2.57;;;2.37;;
76346;SDS011;65171;48.378;10.010;2023-02-18T06:03:14;2.50;;;2.30;;
76346;SDS011;65171;48.378;10.010;2023-02-18T06:05:39;2.47;;;2.20;;
76346;SDS011;65171;48.378;10.010;2023-02-18T06:08:04;2.70;;;2.50;;
76346;SDS011;65171;48.378;10.010;2023-02-18T06:10:29;2.40;;;2.20;;
76346;SDS011;65171;48.378;10.010;2023-02-18T06:12:55;2.50;;;2.30;;
76346;SDS011;65171;48.378;10.010;2023-02-18T06:15:20;2.87;;;2.50;;
76346;SDS011;65171;48.378;10.010;2023-02-18T06:17:45;3.03;;;2.67;;
76346;SDS011;65171;48.378;10.010;2023-02-18T06:20:10;2.60;;;2.40;;
76346;SDS011;65171;48.378;10.010;2023-02-18T06:22:36;2.90;;;2.13;;
76346;SDS011;65171;48.378;10.010;2023-02-18T06:25:01;2.43;;;2.20;;
76346;SDS011;65171;48.378;10.010;2023-02-18T06:27:26;2.30;;;2.00;;
76346;SDS011;65171;48.378;10.010;2023-02-18T06:29:51;2.57;;;2.17;;
76346;SDS011;65171;48.378;10.010;2023-02-18T06:32:16;2.20;;;2.00;;
76346;SDS011;65171;48.378;10.010;2023-02-18T06:34:42;2.63;;;2.20;;
76346;SDS011;65171;48.378;10.010;2023-02-18T06:37:07;2.10;;;1.90;;
76346;SDS011;65171;48.378;10.010;2023-02-18T06:39:32;2.10;;;1.90;;
76346;SDS011;65171;48.378;10.010;2023-02-18T06:41:57;2.57;;;1.90;;
76346;SDS011;65171;48.378;10.010;2023-02-18T06:44:22;2.57;;;1.83;;
76346;SDS011;65171;48.378;10.010;2023-02-18T06:46:48;2.50;;;1.53;;
76346;SDS011;65171;48.378;10.010;2023-02-18T06:49:13;2.57;;;1.70;;
76346;SDS011;65171;48.378;10.010;2023-02-18T06:51:38;1.90;;;1.80;;
76346;SDS011;65171;48.378;10.010;2023-02-18T06:54:03;2.10;;;1.90;;
76346;SDS011;65171;48.378;10.010;2023-02-18T06:56:28;1.80;;;1.70;;
76346;SDS011;65171;48.378;10.010;2023-02-18T06:58:54;2.00;;;1.80;;
76346;SDS011;65171;48.378;10.010;2023-02-18T07:01:19;2.20;;;1.70;;
76346;SDS011;65171;48.378;10.010;2023-02-18T07:03:44;1.67;;;1.57;;
76346;SDS011;65171;48.378;10.010;2023-02-18T07:06:09;2.10;;;1.80;;
76346;SDS011;65171;48.378;10.010;2023-02-18T07:08:34;2.47;;;1.97;;
76346;SDS011;65171;48.378;10.010;2023-02-18T07:11:00;2.20;;;1.80;;
76346;SDS011;65171;48.378;10.010;2023-02-18T07:13:25;2.03;;;1.83;;
76346;SDS011;65171;48.378;10.010;2023-02-18T07:15:50;1.93;;;1.80;;
76346;SDS011;65171;48.378;10.010;2023-02-18T07:18:15;2.30;;;1.90;;
76346;SDS011;65171;48.378;10.010;2023-02-18T07:20:41;2.00;;;1.90;;
76346;SDS011;65171;48.378;10.010;2023-02-18T07:23:06;2.43;;;2.10;;
76346;SDS011;65171;48.378;10.010;2023-02-18T07:25:31;2.60;;;2.23;;
76346;SDS011;65171;48.378;10.010;2023-02-18T07:27:56;2.27;;;2.07;;
76346;SDS011;65171;48.378;10.010;2023-02-18T07:30:21;2.47;;;1.97;;
76346;SDS011;65171;48.378;10.010;2023-02-18T07:32:47;2.27;;;2.07;;
76346;SDS011;65171;48.378;10.010;2023-02-18T07:35:13;2.30;;;2.10;;
76346;SDS011;65171;48.378;10.010;2023-02-18T07:37:47;2.40;;;2.07;;
76346;SDS011;65171;48.378;10.010;2023-02-18T07:40:14;2.17;;;1.97;;
76346;SDS011;65171;48.378;10.010;2023-02-18T07:42:41;2.20;;;2.00;;
76346;SDS011;65171;48.378;10.010;2023-02-18T07:45:07;2.40;;;2.20;;
76346;SDS011;65171;48.378;10.010;2023-02-18T07:47:32;2.43;;;2.13;;
76346;SDS011;65171;48.378;10.010;2023-02-18T07:49:58;2.23;;;1.87;;
76346;SDS011;65171;48.378;10.010;2023-02-18T07:52:23;2.20;;;2.00;;
76346;SDS011;65171;48.378;10.010;2023-02-18T07:54:48;2.80;;;2.10;;
76346;SDS011;65171;48.378;10.010;2023-02-18T07:57:13;2.37;;;2.10;;
76346;SDS011;65171;48.378;10.010;2023-02-18T07:59:38;3.07;;;2.27;;
76346;SDS011;65171;48.378;10.010;2023-02-18T08:02:04;2.07;;;1.90;;
76346;SDS011;65171;48.378;10.010;2023-02-18T08:04:29;2.00;;;1.90;;
76346;SDS011;65171;48.378;10.010;2023-02-18T08:06:54;2.83;;;2.20;;
76346;SDS011;65171;48.378;10.010;2023-02-18T08:09:19;2.50;;;2.30;;
76346;SDS011;65171;48.378;10.010;2023-02-18T08:11:45;2.27;;;2.07;;
76346;SDS011;65171;48.378;10.010;2023-02-18T08:14:10;2.33;;;2.13;;
76346;SDS011;65171;48.378;10.010;2023-02-18T08:16:35;2.30;;;2.10;;
76346;SDS011;65171;48.378;10.010;2023-02-18T08:19:01;2.10;;;1.90;;
76346;SDS011;65171;48.378;10.010;2023-02-18T08:21:26;2.33;;;1.80;;
76346;SDS011;65171;48.378;10.010;2023-02-18T08:23:52;1.90;;;1.70;;
76346;SDS011;65171;48.378;10.010;2023-02-18T08:26:17;2.63;;;1.80;;
76346;SDS011;65171;48.378;10.010;2023-02-18T08:28:43;2.60;;;1.70;;
76346;SDS011;65171;48.378;10.010;2023-02-18T08:31:18;1.50;;;1.40;;
76346;SDS011;65171;48.378;10.010;2023-02-18T08:33:46;8.17;;;2.00;;
76346;SDS011;65171;48.378;10.010;2023-02-18T08:36:11;1.40;;;1.30;;
76346;SDS011;65171;48.378;10.010;2023-02-18T08:38:37;1.43;;;1.30;;
76346;SDS011;65171;48.378;10.010;2023-02-18T08:41:07;1.63;;;1.53;;
76346;SDS011;65171;48.378;10.010;2023-02-18T08:43:33;1.70;;;1.47;;
76346;SDS011;65171;48.378;10.010;2023-02-18T08:45:58;1.83;;;1.40;;
76346;SDS011;65171;48.378;10.010;2023-02-18T08:48:24;1.40;;;1.30;;
76346;SDS011;65171;48.378;10.010;2023-02-18T08:50:50;1.50;;;1.40;;
76346;SDS011;65171;48.378;10.010;2023-02-18T08:53:15;1.47;;;1.37;;
76346;SDS011;65171;48.378;10.010;2023-02-18T08:55:41;1.90;;;1.30;;
76346;SDS011;65171;48.378;10.010;2023-02-18T08:58:07;1.50;;;1.40;;
76346;SDS011;65171;48.378;10.010;2023-02-18T09:00:33;1.40;;;1.30;;
76346;SDS011;65171;48.378;10.010;2023-02-18T09:02:58;1.30;;;1.20;;
76346;SDS011;65171;48.378;10.010;2023-02-18T09:05:23;1.73;;;1.20;;
76346;SDS011;65171;48.378;10.010;2023-02-18T09:07:49;2.77;;;1.27;;
76346;SDS011;65171;48.378;10.010;2023-02-18T09:10:14;1.20;;;1.10;;
76346;SDS011;65171;48.378;10.010;2023-02-18T09:12:39;1.57;;;1.20;;
76346;SDS011;65171;48.378;10.010;2023-02-18T09:15:04;1.27;;;1.17;;
76346;SDS011;65171;48.378;10.010;2023-02-18T09:17:30;1.63;;;1.20;;
76346;SDS011;65171;48.378;10.010;2023-02-18T09:19:55;1.20;;;1.10;;
76346;SDS011;65171;48.378;10.010;2023-02-18T09:22:20;1.30;;;1.20;;
76346;SDS011;65171;48.378;10.010;2023-02-18T09:24:45;1.43;;;1.20;;
76346;SDS011;65171;48.378;10.010;2023-02-18T09:27:11;1.20;;;1.10;;
76346;SDS011;65171;48.378;10.010;2023-02-18T09:29:37;1.97;;;1.10;;
76346;SDS011;65171;48.378;10.010;2023-02-18T09:32:03;1.20;;;1.10;;
76346;SDS011;65171;48.378;10.010;2023-02-18T09:34:30;1.10;;;1.00;;
76346;SDS011;65171;48.378;10.010;2023-02-18T09:36:55;2.83;;;1.00;;
76346;SDS011;65171;48.378;10.010;2023-02-18T09:39:21;1.77;;;1.10;;
76346;SDS011;65171;48.378;10.010;2023-02-18T09:41:47;1.63;;;1.10;;
76346;SDS011;65171;48.378;10.010;2023-02-18T09:44:17;1.63;;;1.20;;
76346;SDS011;65171;48.378;10.010;2023-02-18T09:49:25;1.53;;;1.20;;
76346;SDS011;65171;48.378;10.010;2023-02-18T09:51:53;2.03;;;1.10;;
76346;SDS011;65171;48.378;10.010;2023-02-18T09:54:20;1.37;;;1.27;;
76346;SDS011;65171;48.378;10.010;2023-02-18T09:56:46;2.77;;;1.30;;
76346;SDS011;65171;48.378;10.010;2023-02-18T09:59:16;1.87;;;1.20;;
76346;SDS011;65171;48.378;10.010;2023-02-18T10:01:45;2.50;;;1.30;;
76346;SDS011;65171;48.378;10.010;2023-02-18T10:04:17;1.30;;;1.13;;
76346;SDS011;65171;48.378;10.010;2023-02-18T10:06:46;1.60;;;1.20;;
76346;SDS011;65171;48.378;10.010;2023-02-18T10:11:56;1.40;;;1.20;;
76346;SDS011;65171;48.378;10.010;2023-02-18T10:14:26;1.37;;;1.20;;
76346;SDS011;65171;48.378;10.010;2023-02-18T10:16:52;1.37;;;1.20;;
76346;SDS011;65171;48.378;10.010;2023-02-18T10:22:13;1.80;;;1.23;;
76346;SDS011;65171;48.378;10.010;2023-02-18T10:24:41;2.47;;;1.20;;
76346;SDS011;65171;48.378;10.010;2023-02-18T10:27:10;1.30;;;1.20;;
76346;SDS011;65171;48.378;10.010;2023-02-18T10:29:43;1.63;;;1.27;;
76346;SDS011;65171;48.378;10.010;2023-02-18T10:35:14;2.33;;;1.37;;
76346;SDS011;65171;48.378;10.010;2023-02-18T10:40:41;4.13;;;1.37;;
76346;SDS011;65171;48.378;10.010;2023-02-18T10:43:21;1.50;;;1.40;;
76346;SDS011;65171;48.378;10.010;2023-02-18T10:48:38;2.13;;;1.37;;
76346;SDS011;65171;48.378;10.010;2023-02-18T10:51:17;2.87;;;1.33;;
76346;SDS011;65171;48.378;10.010;2023-02-18T10:53:45;3.27;;;1.47;;
76346;SDS011;65171;48.378;10.010;2023-02-18T10:56:48;1.30;;;1.17;;
76346;SDS011;65171;48.378;10.010;2023-02-18T10:59:20;2.10;;;1.10;;
76346;SDS011;65171;48.378;10.010;2023-02-18T11:04:25;1.30;;;1.20;;
76346;SDS011;65171;48.378;10.010;2023-02-18T11:07:01;1.83;;;1.20;;
76346;SDS011;65171;48.378;10.010;2023-02-18T11:11:58;2.00;;;1.33;;
76346;SDS011;65171;48.378;10.010;2023-02-18T11:14:36;1.83;;;1.20;;
76346;SDS011;65171;48.378;10.010;2023-02-18T11:17:09;3.20;;;1.50;;
76346;SDS011;65171;48.378;10.010;2023-02-18T11:19:40;2.87;;;1.27;;
76346;SDS011;65171;48.378;10.010;2023-02-18T11:22:50;1.40;;;1.13;;
76346;SDS011;65171;48.378;10.010;2023-02-18T11:24:58;2.57;;;1.20;;
76346;SDS011;65171;48.378;10.010;2023-02-18T11:30:13;1.30;;;1.10;;
76346;SDS011;65171;48.378;10.010;2023-02-18T11:32:43;2.03;;;1.40;;
76346;SDS011;65171;48.378;10.010;2023-02-18T11:35:16;2.00;;;1.30;;
76346;SDS011;65171;48.378;10.010;2023-02-18T11:37:47;2.40;;;1.30;;
76346;SDS011;65171;48.378;10.010;2023-02-18T11:40:20;1.20;;;1.10;;
76346;SDS011;65171;48.378;10.010;2023-02-18T11:42:47;2.37;;;1.40;;
76346;SDS011;65171;48.378;10.010;2023-02-18T11:45:29;1.87;;;1.30;;
76346;SDS011;65171;48.378;10.010;2023-02-18T11:48:00;1.27;;;1.17;;
76346;SDS011;65171;48.378;10.010;2023-02-18T11:50:31;1.20;;;1.10;;
76346;SDS011;65171;48.378;10.010;2023-02-18T11:52:57;5.77;;;1.33;;
76346;SDS011;65171;48.378;10.010;2023-02-18T11:55:23;1.43;;;1.30;;
76346;SDS011;65171;48.378;10.010;2023-02-18T11:58:09;1.77;;;1.20;;
76346;SDS011;65171;48.378;10.010;2023-02-18T12:00:37;1.80;;;1.10;;
76346;SDS011;65171;48.378;10.010;2023-02-18T12:03:14;2.20;;;1.23;;
76346;SDS011;65171;48.378;10.010;2023-02-18T12:05:40;2.53;;;1.30;;
76346;SDS011;65171;48.378;10.010;2023-02-18T12:08:50;1.57;;;1.20;;
76346;SDS011;65171;48.378;10.010;2023-02-18T12:11:00;2.00;;;1.20;;
76346;SDS011;65171;48.378;10.010;2023-02-18T12:13:31;3.67;;;1.30;;
76346;SDS011;65171;48.378;10.010;2023-02-18T12:21:35;2.83;;;1.23;;
76346;SDS011;65171;48.378;10.010;2023-02-18T12:35:17;1.83;;;1.40;;
76346;SDS011;65171;48.378;10.010;2023-02-18T12:37:59;2.23;;;1.30;;
76346;SDS011;65171;48.378;10.010;2023-02-18T12:43:36;3.47;;;1.30;;
76346;SDS011;65171;48.378;10.010;2023-02-18T12:55:35;1.40;;;1.30;;
76346;SDS011;65171;48.378;10.010;2023-02-18T13:01:07;1.83;;;1.50;;
76346;SDS011;65171;48.378;10.010;2023-02-18T13:08:48;1.90;;;1.57;;
76346;SDS011;65171;48.378;10.010;2023-02-18T13:14:24;2.63;;;1.27;;
76346;SDS011;65171;48.378;10.010;2023-02-18T13:16:54;1.50;;;1.20;;
76346;SDS011;65171;48.378;10.010;2023-02-18T13:19:31;1.40;;;1.30;;
76346;SDS011;65171;48.378;10.010;2023-02-18T13:22:05;1.70;;;1.10;;
76346;SDS011;65171;48.378;10.010;2023-02-18T13:24:35;1.23;;;1.00;;
76346;SDS011;65171;48.378;10.010;2023-02-18T13:27:04;1.03;;;0.93;;
76346;SDS011;65171;48.378;10.010;2023-02-18T13:29:34;1.20;;;1.10;;
76346;SDS011;65171;48.378;10.010;2023-02-18T13:34:53;1.20;;;1.10;;
76346;SDS011;65171;48.378;10.010;2023-02-18T13:40:43;1.20;;;1.00;;
76346;SDS011;65171;48.378;10.010;2023-02-18T13:48:38;1.13;;;1.03;;
76346;SDS011;65171;48.378;10.010;2023-02-18T13:51:07;1.23;;;1.13;;
76346;SDS011;65171;48.378;10.010;2023-02-18T13:53:36;1.70;;;1.20;;
76346;SDS011;65171;48.378;10.010;2023-02-18T13:56:07;1.43;;;1.20;;
76346;SDS011;65171;48.378;10.010;2023-02-18T13:58:36;1.30;;;1.20;;
76346;SDS011;65171;48.378;10.010;2023-02-18T14:01:11;2.20;;;1.10;;
76346;SDS011;65171;48.378;10.010;2023-02-18T14:04:00;1.17;;;0.97;;
76346;SDS011;65171;48.378;10.010;2023-02-18T14:09:27;1.30;;;1.20;;
76346;SDS011;65171;48.378;10.010;2023-02-18T14:11:54;1.17;;;1.07;;
76346;SDS011;65171;48.378;10.010;2023-02-18T14:14:30;2.40;;;1.17;;
76346;SDS011;65171;48.378;10.010;2023-02-18T14:19:41;1.33;;;1.23;;
76346;SDS011;65171;48.378;10.010;2023-02-18T14:27:32;2.23;;;1.30;;
76346;SDS011;65171;48.378;10.010;2023-02-18T14:30:02;1.20;;;1.10;;
76346;SDS011;65171;48.378;10.010;2023-02-18T14:32:30;1.90;;;1.30;;
76346;SDS011;65171;48.378;10.010;2023-02-18T14:35:05;1.20;;;1.10;;
76346;SDS011;65171;48.378;10.010;2023-02-18T14:40:14;1.40;;;1.30;;
76346;SDS011;65171;48.378;10.010;2023-02-18T14:45:28;1.70;;;1.30;;
76346;SDS011;65171;48.378;10.010;2023-02-18T14:50:57;2.63;;;1.30;;
76346;SDS011;65171;48.378;10.010;2023-02-18T14:53:23;1.63;;;1.30;;
76346;SDS011;65171;48.378;10.010;2023-02-18T14:55:52;1.70;;;1.60;;
76346;SDS011;65171;48.378;10.010;2023-02-18T14:58:24;2.53;;;1.60;;
76346;SDS011;65171;48.378;10.010;2023-02-18T15:00:53;2.97;;;2.53;;
76346;SDS011;65171;48.378;10.010;2023-02-18T15:03:19;3.50;;;2.17;;
76346;SDS011;65171;48.378;10.010;2023-02-18T15:05:45;1.60;;;1.50;;
76346;SDS011;65171;48.378;10.010;2023-02-18T15:08:20;1.33;;;1.20;;
76346;SDS011;65171;48.378;10.010;2023-02-18T15:10:51;1.30;;;1.20;;
76346;SDS011;65171;48.378;10.010;2023-02-18T15:13:28;2.10;;;1.40;;
76346;SDS011;65171;48.378;10.010;2023-02-18T15:15:59;1.57;;;1.10;;
76346;SDS011;65171;48.378;10.010;2023-02-18T15:21:00;1.83;;;1.30;;
76346;SDS011;65171;48.378;10.010;2023-02-18T15:23:26;2.43;;;1.43;;
76346;SDS011;65171;48.378;10.010;2023-02-18T15:25:53;1.83;;;1.40;;
76346;SDS011;65171;48.378;10.010;2023-02-18T15:28:24;2.57;;;1.30;;
76346;SDS011;65171;48.378;10.010;2023-02-18T15:31:00;1.80;;;1.50;;
76346;SDS011;65171;48.378;10.010;2023-02-18T15:33:27;2.13;;;1.20;;
76346;SDS011;65171;48.378;10.010;2023-02-18T15:35:59;1.40;;;1.30;;
76346;SDS011;65171;48.378;10.010;2023-02-18T15:38:28;3.27;;;1.20;;
76346;SDS011;65171;48.378;10.010;2023-02-18T15:40:53;2.63;;;1.20;;
76346;SDS011;65171;48.378;10.010;2023-02-18T15:43:20;1.47;;;1.37;;
76346;SDS011;65171;48.378;10.010;2023-02-18T15:45:48;1.30;;;1.20;;
76346;SDS011;65171;48.378;10.010;2023-02-18T15:48:21;1.57;;;1.40;;
76346;SDS011;65171;48.378;10.010;2023-02-18T15:50:53;1.70;;;1.50;;
76346;SDS011;65171;48.378;10.010;2023-02-18T15:53:20;2.47;;;1.47;;
76346;SDS011;65171;48.378;10.010;2023-02-18T15:55:47;1.60;;;1.40;;
76346;SDS011;65171;48.378;10.010;2023-02-18T16:00:46;2.17;;;1.30;;
76346;SDS011;65171;48.378;10.010;2023-02-18T16:03:12;1.33;;;1.20;;
76346;SDS011;65171;48.378;10.010;2023-02-18T16:05:41;1.63;;;1.30;;
76346;SDS011;65171;48.378;10.010;2023-02-18T16:08:20;1.57;;;1.30;;
76346;SDS011;65171;48.378;10.010;2023-02-18T16:10:59;2.53;;;1.70;;
76346;SDS011;65171;48.378;10.010;2023-02-18T16:13:37;2.40;;;1.40;;
76346;SDS011;65171;48.378;10.010;2023-02-18T16:18:55;1.53;;;1.30;;
76346;SDS011;65171;48.378;10.010;2023-02-18T16:21:37;3.10;;;1.80;;
76346;SDS011;65171;48.378;10.010;2023-02-18T16:24:20;2.10;;;1.33;;
76346;SDS011;65171;48.378;10.010;2023-02-18T16:26:49;1.60;;;1.20;;
76346;SDS011;65171;48.378;10.010;2023-02-18T16:29:25;1.70;;;1.30;;
76346;SDS011;65171;48.378;10.010;2023-02-18T16:31:58;1.77;;;1.30;;
76346;SDS011;65171;48.378;10.010;2023-02-18T16:34:23;2.80;;;1.60;;
76346;SDS011;65171;48.378;10.010;2023-02-18T16:36:48;2.00;;;1.43;;
76346;SDS011;65171;48.378;10.010;2023-02-18T16:39:14;1.63;;;1.50;;
76346;SDS011;65171;48.378;10.010;2023-02-18T16:41:39;3.30;;;1.50;;
76346;SDS011;65171;48.378;10.010;2023-02-18T16:44:09;1.50;;;1.40;;
76346;SDS011;65171;48.378;10.010;2023-02-18T16:46:37;2.90;;;1.60;;
76346;SDS011;65171;48.378;10.010;2023-02-18T16:49:02;4.07;;;1.70;;
76346;SDS011;65171;48.378;10.010;2023-02-18T16:51:31;5.13;;;2.70;;
76346;SDS011;65171;48.378;10.010;2023-02-18T17:00:03;1.70;;;1.50;;
76346;SDS011;65171;48.378;10.010;2023-02-18T17:05:16;2.13;;;1.30;;
76346;SDS011;65171;48.378;10.010;2023-02-18T17:07:50;3.30;;;1.70;;
76346;SDS011;65171;48.378;10.010;2023-02-18T17:10:15;2.20;;;1.80;;
76346;SDS011;65171;48.378;10.010;2023-02-18T17:12:45;1.80;;;1.60;;